Date,TemperatureHighF,TemperatureAvgF,TemperatureLowF,DewpointHighF,DewpointAvgF,DewpointLowF,HumidityHigh,HumidityAvg,HumidityLow,PressureMaxIn,PressureMinIn,WindSpeedMaxMPH,WindSpeedAvgMPH,GustSpeedMaxMPH,PrecipitationSumIn
2013-9-1,83,75,70,74,71,69,97,88,69,29.86,29.77,13,2,15,0.00
2013-9-2,78,74,72,74,72,71,97,93,85,29.85,29.69,12,2,15,0.00
2013-9-3,81,71,59,71,67,57,99,86,65,29.80,29.68,10,1,12,0.01
2013-9-4,81,67,54,61,57,54,98,73,42,29.90,29.79,13,2,18,0.00
2013-9-5,71,62,49,60,51,41,94,72,37,30.15,29.84,12,1,14,0.00
2013-9-6,70,56,40,48,43,38,97,67,35,30.25,30.08,12,1,16,0.00
2013-9-7,80,62,46,61,52,44,94,72,36,30.08,29.84,10,1,12,0.00
2013-9-8,71,63,48,61,52,41,89,68,40,30.09,29.74,17,2,19,0.00
2013-9-9,70,55,38,50,44,37,96,68,37,30.24,30.09,14,1,15,0.00
2013-9-10,75,66,54,71,62,49,96,89,82,30.14,30.00,13,2,15,0.00
2013-9-11,94,81,68,76,72,67,99,77,49,30.05,29.91,16,3,22,0.00
2013-9-12,85,74,66,75,69,65,97,87,68,29.94,29.65,16,1,20,0.00
2013-9-13,76,67,58,69,63,54,99,87,70,29.76,29.56,11,1,15,0.00
2013-9-14,66,59,50,55,53,48,95,80,65,30.06,29.75,12,1,13,0.00
2013-9-15,72,57,43,53,48,43,98,76,41,30.16,30.03,11,1,13,0.00
2013-9-16,66,56,46,57,50,38,96,80,60,30.26,29.99,14,1,15,0.00
2013-9-17,65,50,35,48,40,34,96,72,42,30.43,30.26,12,1,12,0.00
2013-9-18,74,54,37,52,44,36,97,73,32,30.33,30.13,9,1,0,0.00
2013-9-19,80,60,42,60,50,41,97,75,37,30.13,30.02,6,0,0,0.00
2013-9-20,79,62,45,59,52,-100,100,76,41,30.09,29.98,11,1,12,0.00
2013-9-21,74,63,48,65,58,47,98,85,64,30.02,29.70,19,3,22,0.00
2013-9-22,69,63,52,66,56,44,97,79,53,29.84,29.58,17,3,21,0.00
2013-9-23,62,51,43,46,42,40,88,72,51,30.01,29.83,16,2,20,0.00
2013-9-24,68,52,37,47,42,35,96,71,40,30.00,29.82,13,1,17,0.00
2013-9-25,69,54,40,53,47,39,97,79,53,29.99,29.87,15,1,15,0.00
2013-9-26,69,58,52,53,50,46,93,75,50,30.13,29.99,12,0,13,0.00
2013-9-27,68,58,48,57,52,47,96,81,61,30.26,30.13,7,0,0,0.00
2013-9-28,74,57,43,58,50,42,98,82,52,30.34,30.26,14,1,16,0.00
2013-9-29,67,53,43,54,47,42,98,83,44,30.27,30.12,9,1,12,0.00
2013-9-30,71,53,43,55,48,42,98,84,47,30.13,29.97,7,0,0,0.00